Time;durP1;ratioP1;P1;durP2;ratioP2;P2;SDS_P1;SDS_P2;PMS_P1;PMS_P2;Temp;Humidity;BMP_temperature;BMP_pressure;BME280_temperature;BME280_humidity;BME280_pressure;Samples;Min_cycle;Max_cycle;Signal;HPM_P1;HPM_P2
2021/09/13 00:00:19;;;;;;;9.75;7.35;;;18.40;99.90;;;;;;5063671;28;20044;-79
2021/09/13 00:02:44;;;;;;;12.55;7.90;;;18.50;99.90;;;;;;5045592;28;20044;-79
2021/09/13 00:05:10;;;;;;;11.55;8.15;;;18.50;99.90;;;;;;5056658;28;20044;-80
2021/09/13 00:07:35;;;;;;;9.88;7.35;;;18.50;99.90;;;;;;5050485;28;20051;-80
2021/09/13 00:10:01;;;;;;;10.43;7.82;;;18.60;99.90;;;;;;5066978;28;20099;-79
2021/09/13 00:12:27;;;;;;;9.50;7.40;;;18.60;99.90;;;;;;5045186;28;20056;-79
2021/09/13 00:14:52;;;;;;;11.70;7.55;;;18.60;99.90;;;;;;5040255;28;20047;-79
2021/09/13 00:17:18;;;;;;;9.43;7.53;;;18.60;99.90;;;;;;5059084;28;20048;-80
2021/09/13 00:19:43;;;;;;;9.38;6.82;;;18.60;99.90;;;;;;5059998;28;20040;-79
2021/09/13 00:22:10;;;;;;;10.50;7.60;;;18.60;99.90;;;;;;5045332;28;20041;-79
2021/09/13 00:24:36;;;;;;;11.23;8.02;;;18.60;99.90;;;;;;5070539;28;20040;-79
2021/09/13 00:27:01;;;;;;;10.35;7.65;;;18.60;99.90;;;;;;5073560;28;20040;-79
2021/09/13 00:29:27;;;;;;;11.60;7.75;;;18.60;99.90;;;;;;5060903;28;20041;-80
2021/09/13 00:31:52;;;;;;;11.57;7.00;;;18.70;99.90;;;;;;5056680;28;20051;-79
2021/09/13 00:34:18;;;;;;;8.38;6.32;;;18.70;99.90;;;;;;5056559;28;20051;-80
2021/09/13 00:36:43;;;;;;;9.02;7.05;;;18.70;99.90;;;;;;5063988;28;20045;-80
2021/09/13 00:39:09;;;;;;;11.88;7.25;;;18.70;99.90;;;;;;5076853;28;20304;-80
2021/09/13 00:41:34;;;;;;;9.80;7.72;;;18.70;99.90;;;;;;5055494;28;20128;-80
2021/09/13 00:44:01;;;;;;;10.55;7.32;;;18.70;99.90;;;;;;5062865;28;20123;-80
2021/09/13 00:46:26;;;;;;;9.52;7.00;;;18.70;99.90;;;;;;5061101;28;20037;-80
2021/09/13 00:48:52;;;;;;;9.93;6.95;;;18.70;99.90;;;;;;5063160;28;20106;-80
2021/09/13 00:51:17;;;;;;;8.95;6.90;;;18.70;99.90;;;;;;5058108;28;20076;-79
2021/09/13 00:53:43;;;;;;;8.68;6.13;;;18.70;99.90;;;;;;5056609;28;20041;-79
2021/09/13 00:56:09;;;;;;;9.50;6.55;;;18.70;99.90;;;;;;5057107;28;20032;-79
2021/09/13 00:58:36;;;;;;;11.70;8.02;;;18.70;99.90;;;;;;5065755;28;20037;-79
2021/09/13 01:01:03;;;;;;;10.43;6.57;;;18.70;99.90;;;;;;5045652;28;20466;-80
2021/09/13 01:03:28;;;;;;;10.75;7.05;;;18.80;99.90;;;;;;5063806;28;20059;-79
2021/09/13 01:05:54;;;;;;;8.57;6.57;;;18.80;99.90;;;;;;5060905;28;20036;-79
2021/09/13 01:08:19;;;;;;;11.02;6.93;;;18.80;99.90;;;;;;5059748;28;20037;-81
2021/09/13 01:10:47;;;;;;;8.20;6.28;;;18.80;99.80;;;;;;5053709;28;20051;-80
2021/09/13 01:13:13;;;;;;;9.50;6.38;;;18.80;99.80;;;;;;5063916;28;20032;-79
2021/09/13 01:15:39;;;;;;;9.65;6.85;;;18.80;99.90;;;;;;5073197;28;20047;-79
2021/09/13 01:18:05;;;;;;;9.52;6.85;;;18.80;99.50;;;;;;5041625;28;20040;-79
2021/09/13 01:20:31;;;;;;;12.10;7.60;;;18.80;99.50;;;;;;5057909;28;20041;-79
2021/09/13 01:23:05;;;;;;;10.73;6.63;;;18.90;99.50;;;;;;5049331;28;20071;-80
2021/09/13 01:25:31;;;;;;;8.38;6.03;;;18.90;99.50;;;;;;5066753;28;20036;-79
2021/09/13 01:27:56;;;;;;;8.70;6.70;;;18.90;99.50;;;;;;5072950;28;20119;-80
2021/09/13 01:30:22;;;;;;;8.98;6.32;;;18.90;99.40;;;;;;5061516;28;20052;-80
2021/09/13 01:32:47;;;;;;;8.60;6.70;;;18.90;99.30;;;;;;5068945;28;20124;-79
2021/09/13 01:35:13;;;;;;;8.25;6.07;;;18.90;99.20;;;;;;5048383;28;20044;-79
2021/09/13 01:37:38;;;;;;;7.90;5.55;;;18.90;99.20;;;;;;5062245;28;20045;-79
2021/09/13 01:40:05;;;;;;;8.65;6.10;;;18.90;99.20;;;;;;5043378;28;20542;-79
2021/09/13 01:42:31;;;;;;;12.13;6.40;;;18.90;99.20;;;;;;5057919;28;20044;-79
2021/09/13 01:44:56;;;;;;;8.65;5.63;;;18.90;99.10;;;;;;5062814;28;20172;-79
2021/09/13 01:47:22;;;;;;;8.98;6.60;;;19.00;99.20;;;;;;5074229;28;20041;-79
2021/09/13 01:49:47;;;;;;;8.35;6.13;;;18.90;99.20;;;;;;5041919;28;20087;-80
2021/09/13 01:52:13;;;;;;;9.13;6.30;;;18.90;99.10;;;;;;5066318;28;20442;-79
2021/09/13 01:54:38;;;;;;;11.02;6.38;;;18.90;99.10;;;;;;5066296;28;20408;-79
2021/09/13 01:57:04;;;;;;;11.32;6.10;;;18.90;99.10;;;;;;5071396;28;20036;-79
2021/09/13 01:59:29;;;;;;;8.07;6.07;;;18.90;99.00;;;;;;5065861;28;20048;-79
2021/09/13 02:01:55;;;;;;;7.35;6.10;;;18.90;98.90;;;;;;5047681;28;20170;-79
2021/09/13 02:04:20;;;;;;;6.05;5.45;;;18.90;98.90;;;;;;5066570;28;20063;-79
2021/09/13 02:06:46;;;;;;;7.32;5.57;;;18.90;98.90;;;;;;5066289;28;20041;-80
2021/09/13 02:09:11;;;;;;;7.40;5.90;;;18.90;99.00;;;;;;5057359;28;20043;-80
2021/09/13 02:11:37;;;;;;;8.40;5.65;;;18.90;99.00;;;;;;5062877;28;20032;-79
2021/09/13 02:14:02;;;;;;;7.93;5.40;;;18.90;99.00;;;;;;5067075;28;20144;-80
2021/09/13 02:16:27;;;;;;;7.47;5.65;;;19.00;99.00;;;;;;5067387;28;20308;-80
2021/09/13 02:18:53;;;;;;;7.97;6.20;;;19.00;99.00;;;;;;5047093;28;20170;-80
2021/09/13 02:21:18;;;;;;;9.98;6.22;;;19.00;99.10;;;;;;5068696;28;20396;-79
2021/09/13 02:23:44;;;;;;;10.90;6.57;;;19.00;99.10;;;;;;5063754;28;20450;-79
2021/09/13 02:26:09;;;;;;;8.77;6.30;;;18.90;99.10;;;;;;5051940;28;20044;-79
2021/09/13 02:28:35;;;;;;;7.78;5.85;;;18.90;99.10;;;;;;5057018;28;20033;-79
2021/09/13 02:31:00;;;;;;;8.93;6.82;;;18.90;99.20;;;;;;5070706;28;20036;-80
2021/09/13 02:33:26;;;;;;;10.13;6.38;;;18.90;99.10;;;;;;5065236;28;20032;-81
2021/09/13 02:35:51;;;;;;;9.15;6.35;;;18.90;99.10;;;;;;5052217;28;20400;-80
2021/09/13 02:38:17;;;;;;;11.65;6.97;;;18.80;99.10;;;;;;5059668;28;20064;-81
2021/09/13 02:40:42;;;;;;;8.45;6.20;;;18.80;99.20;;;;;;5064905;28;20048;-81
2021/09/13 02:43:08;;;;;;;9.75;7.13;;;18.70;99.20;;;;;;5058689;28;20052;-80
2021/09/13 02:45:33;;;;;;;8.35;6.15;;;18.70;99.10;;;;;;5064195;28;20044;-80
2021/09/13 02:47:59;;;;;;;9.82;6.70;;;18.70;99.10;;;;;;5068187;28;20067;-79
2021/09/13 02:50:24;;;;;;;9.13;6.03;;;18.70;99.20;;;;;;5066519;28;20033;-79
2021/09/13 02:52:50;;;;;;;8.48;5.85;;;18.60;99.20;;;;;;5068387;28;20071;-79
2021/09/13 02:55:15;;;;;;;8.40;6.45;;;18.60;99.20;;;;;;5039203;28;20045;-79
2021/09/13 02:57:41;;;;;;;7.10;6.05;;;18.60;99.20;;;;;;5068087;28;20055;-80
2021/09/13 03:00:07;;;;;;;8.07;6.28;;;18.60;99.30;;;;;;5062996;28;20044;-79
2021/09/13 03:02:32;;;;;;;9.50;6.78;;;18.60;99.30;;;;;;5059737;28;20036;-80
2021/09/13 03:04:58;;;;;;;11.20;6.90;;;18.60;99.30;;;;;;5054706;28;20033;-79
2021/09/13 03:07:23;;;;;;;7.80;6.10;;;18.60;99.40;;;;;;5040081;28;20067;-79
2021/09/13 03:09:49;;;;;;;11.40;6.95;;;18.60;99.40;;;;;;5062025;28;20339;-80
2021/09/13 03:12:14;;;;;;;11.55;6.10;;;18.60;99.40;;;;;;5038673;28;20029;-80
2021/09/13 03:14:40;;;;;;;7.80;5.93;;;18.60;99.30;;;;;;5058060;28;20061;-79
2021/09/13 03:17:05;;;;;;;10.88;6.63;;;18.60;99.30;;;;;;5060540;28;20063;-79
2021/09/13 03:19:31;;;;;;;9.82;6.25;;;18.60;99.30;;;;;;5037099;28;20053;-79
2021/09/13 03:21:56;;;;;;;8.85;5.75;;;18.50;99.20;;;;;;5065697;28;20131;-79
2021/09/13 03:24:22;;;;;;;10.43;6.78;;;18.50;99.30;;;;;;5056362;28;20051;-79
2021/09/13 03:26:47;;;;;;;7.70;5.50;;;18.50;99.30;;;;;;5059526;28;20404;-78
2021/09/13 03:29:13;;;;;;;7.97;5.85;;;18.40;99.30;;;;;;5074093;28;20098;-82
2021/09/13 03:31:38;;;;;;;8.02;5.88;;;18.40;99.30;;;;;;5062285;28;20075;-79
2021/09/13 03:34:05;;;;;;;8.27;6.32;;;18.40;99.40;;;;;;5045351;28;20048;-79
2021/09/13 03:36:31;;;;;;;9.80;6.35;;;18.40;99.50;;;;;;5044416;28;20116;-79
2021/09/13 03:38:56;;;;;;;8.45;6.65;;;18.30;99.60;;;;;;5061137;28;20040;-79
2021/09/13 03:41:22;;;;;;;8.57;6.45;;;18.30;99.70;;;;;;5060673;28;20436;-79
2021/09/13 03:43:48;;;;;;;8.95;6.78;;;18.30;99.70;;;;;;5060060;28;20044;-79
2021/09/13 03:46:13;;;;;;;12.98;7.30;;;18.20;99.80;;;;;;5069148;28;20065;-79
2021/09/13 03:48:39;;;;;;;8.98;6.40;;;18.20;99.80;;;;;;5054670;28;20095;-79
2021/09/13 03:51:04;;;;;;;9.60;6.38;;;18.20;99.90;;;;;;5061782;28;20037;-80
2021/09/13 03:53:30;;;;;;;12.07;6.47;;;18.10;99.90;;;;;;5044313;28;20117;-79
2021/09/13 03:55:55;;;;;;;7.22;5.82;;;18.10;99.90;;;;;;5062663;28;20044;-79
2021/09/13 03:58:21;;;;;;;10.57;7.38;;;18.10;99.90;;;;;;5039952;28;20075;-79
2021/09/13 04:00:46;;;;;;;12.75;7.13;;;18.10;99.90;;;;;;5058347;28;20352;-79
2021/09/13 04:03:16;;;;;;;11.02;7.18;;;18.00;99.90;;;;;;5055649;28;20463;-80
2021/09/13 04:05:45;;;;;;;9.70;6.45;;;18.00;99.90;;;;;;5057132;28;20048;-81
2021/09/13 04:13:28;;;;;;;9.68;6.82;;;17.80;99.90;;;;;;5059976;28;20047;-80
2021/09/13 04:15:53;;;;;;;8.35;6.25;;;17.80;99.90;;;;;;5070587;28;20115;-80
2021/09/13 04:18:19;;;;;;;10.43;7.18;;;17.70;99.90;;;;;;5050068;28;20037;-80
2021/09/13 04:20:44;;;;;;;9.80;6.53;;;17.70;99.90;;;;;;5060723;28;20052;-79
2021/09/13 04:23:09;;;;;;;8.45;6.38;;;17.60;99.90;;;;;;5042364;28;20087;-81
2021/09/13 04:25:35;;;;;;;10.57;6.28;;;17.60;99.90;;;;;;5059880;28;20044;-79
2021/09/13 04:28:00;;;;;;;10.30;6.85;;;17.60;99.90;;;;;;5057598;28;20170;-79
2021/09/13 04:30:26;;;;;;;7.95;5.80;;;17.50;99.90;;;;;;5059268;28;20036;-80
2021/09/13 04:32:53;;;;;;;11.00;7.40;;;17.50;99.90;;;;;;5064303;28;20037;-80
2021/09/13 04:35:19;;;;;;;9.55;6.47;;;17.40;99.90;;;;;;5056152;28;20148;-79
2021/09/13 04:37:44;;;;;;;12.60;7.95;;;17.50;99.90;;;;;;5056978;28;20037;-79
2021/09/13 04:40:13;;;;;;;8.40;6.68;;;17.40;99.90;;;;;;5030795;28;20041;-79
2021/09/13 04:42:38;;;;;;;9.95;7.35;;;17.40;99.90;;;;;;5050636;28;20156;-79
2021/09/13 04:45:04;;;;;;;17.02;8.00;;;17.30;99.90;;;;;;5077663;28;20392;-79
2021/09/13 04:47:30;;;;;;;11.63;8.18;;;17.30;99.90;;;;;;5051654;28;20040;-80
2021/09/13 04:49:55;;;;;;;12.18;8.98;;;17.30;99.90;;;;;;5072407;28;20037;-79
2021/09/13 04:52:20;;;;;;;12.48;6.93;;;17.30;99.90;;;;;;5062000;28;20120;-79
2021/09/13 04:54:46;;;;;;;9.35;6.78;;;17.30;99.90;;;;;;5043311;28;20043;-79
2021/09/13 04:57:11;;;;;;;13.93;8.38;;;17.30;99.90;;;;;;5046873;28;20114;-79
2021/09/13 04:59:37;;;;;;;11.70;8.50;;;17.20;99.90;;;;;;5041491;28;20036;-80
2021/09/13 05:02:03;;;;;;;12.52;8.05;;;17.20;99.90;;;;;;5061819;28;20615;-81
2021/09/13 05:04:28;;;;;;;10.85;7.95;;;17.20;99.90;;;;;;5059944;28;20460;-82
2021/09/13 05:06:54;;;;;;;11.90;7.80;;;17.20;99.90;;;;;;5067787;28;20089;-80
2021/09/13 05:09:19;;;;;;;10.63;8.35;;;17.20;99.90;;;;;;5069253;28;20043;-80
2021/09/13 05:11:46;;;;;;;16.10;10.20;;;17.20;99.90;;;;;;5062757;28;20044;-81
2021/09/13 05:14:12;;;;;;;12.07;8.23;;;17.20;99.90;;;;;;5065572;28;20084;-79
2021/09/13 05:16:37;;;;;;;12.30;7.80;;;17.30;99.90;;;;;;5065967;28;20113;-79
2021/09/13 05:19:03;;;;;;;12.43;8.20;;;17.30;99.90;;;;;;5060614;28;20116;-78
2021/09/13 05:21:31;;;;;;;14.43;9.35;;;17.30;99.90;;;;;;5060997;28;20033;-80
2021/09/13 05:23:58;;;;;;;13.88;8.60;;;17.30;99.90;;;;;;5056214;28;20307;-85
2021/09/13 05:26:23;;;;;;;12.13;9.30;;;17.40;99.90;;;;;;5063626;28;20339;-86
2021/09/13 05:28:48;;;;;;;13.93;8.73;;;17.40;99.90;;;;;;5045895;28;20037;-82
2021/09/13 05:31:14;;;;;;;13.82;8.60;;;17.50;99.90;;;;;;5049311;28;20059;-84
2021/09/13 05:33:40;;;;;;;10.35;8.02;;;17.50;99.90;;;;;;5049840;28;20037;-80
2021/09/13 05:36:05;;;;;;;11.18;8.00;;;17.60;99.90;;;;;;5062572;28;20320;-79
2021/09/13 05:38:34;;;;;;;12.98;7.22;;;17.70;99.90;;;;;;5073990;28;20052;-80
2021/09/13 05:40:59;;;;;;;15.50;7.57;;;17.70;99.90;;;;;;5064222;28;20103;-80
2021/09/13 05:43:24;;;;;;;10.57;7.20;;;17.80;99.90;;;;;;5039347;28;20040;-80
2021/09/13 05:45:52;;;;;;;9.90;7.35;;;17.90;99.90;;;;;;5065233;28;20115;-79
2021/09/13 05:48:18;;;;;;;10.95;7.55;;;17.90;99.90;;;;;;5074568;28;20373;-80
2021/09/13 05:50:43;;;;;;;9.00;6.85;;;17.90;99.90;;;;;;5052901;28;20144;-79
2021/09/13 05:53:09;;;;;;;9.65;6.93;;;18.00;99.90;;;;;;5055074;28;20120;-80
2021/09/13 05:55:34;;;;;;;10.13;7.63;;;18.00;99.90;;;;;;5038947;28;20052;-79
2021/09/13 05:58:00;;;;;;;9.68;6.40;;;18.00;99.90;;;;;;5070012;28;20147;-79
2021/09/13 06:00:25;;;;;;;11.15;7.47;;;18.10;99.90;;;;;;5071123;28;20049;-81
2021/09/13 06:02:51;;;;;;;12.05;7.57;;;18.20;99.90;;;;;;5052345;28;20102;-79
2021/09/13 06:05:16;;;;;;;13.30;8.60;;;18.20;99.90;;;;;;5065546;28;20037;-80
2021/09/13 06:07:42;;;;;;;11.10;8.07;;;18.20;99.90;;;;;;5059610;28;20466;-80
2021/09/13 06:10:08;;;;;;;12.50;6.97;;;18.20;99.70;;;;;;5057756;28;20462;-80
2021/09/13 06:12:34;;;;;;;20.98;8.52;;;18.30;99.70;;;;;;5064142;28;20040;-80
2021/09/13 06:15:00;;;;;;;11.70;8.23;;;18.30;99.60;;;;;;5055164;28;20099;-81
2021/09/13 06:17:25;;;;;;;14.25;7.53;;;18.30;99.50;;;;;;5054880;28;20036;-80
2021/09/13 06:19:51;;;;;;;9.93;6.85;;;18.40;99.50;;;;;;5054928;28;20040;-80
2021/09/13 06:22:16;;;;;;;10.70;8.55;;;18.40;99.50;;;;;;5036991;28;20047;-80
2021/09/13 06:24:42;;;;;;;15.70;8.77;;;18.40;99.40;;;;;;5046876;28;20044;-80
2021/09/13 06:27:07;;;;;;;15.10;7.70;;;18.50;99.40;;;;;;5053926;28;20056;-79
2021/09/13 06:29:34;;;;;;;11.95;8.80;;;18.50;99.20;;;;;;5064688;28;20041;-79
2021/09/13 06:32:00;;;;;;;8.30;6.45;;;18.50;98.60;;;;;;5057202;28;20032;-79
2021/09/13 06:34:26;;;;;;;10.68;7.80;;;18.60;98.60;;;;;;5057117;28;20404;-80
2021/09/13 06:36:52;;;;;;;9.30;7.60;;;18.60;98.50;;;;;;5054481;28;20183;-80
2021/09/13 06:39:17;;;;;;;9.90;6.95;;;18.60;97.70;;;;;;5054751;28;20471;-81
2021/09/13 06:41:43;;;;;;;10.48;7.88;;;18.70;97.60;;;;;;5037229;28;20055;-81
2021/09/13 06:44:08;;;;;;;10.20;7.25;;;18.70;97.30;;;;;;5054867;28;20120;-80
2021/09/13 06:46:42;;;;;;;10.50;7.40;;;18.80;97.10;;;;;;5053882;28;20411;-80
2021/09/13 06:49:09;;;;;;;9.60;8.20;;;18.90;96.80;;;;;;5073578;28;20115;-80
2021/09/13 06:51:34;;;;;;;9.50;7.75;;;18.90;96.40;;;;;;5033669;28;20040;-80
2021/09/13 06:54:00;;;;;;;13.45;8.30;;;18.90;96.60;;;;;;5035922;28;20029;-80
2021/09/13 06:56:25;;;;;;;10.40;6.60;;;19.00;96.20;;;;;;5037108;28;20119;-80
2021/09/13 06:58:52;;;;;;;8.98;6.97;;;19.00;95.80;;;;;;5054316;28;20047;-80
2021/09/13 07:01:21;;;;;;;9.43;7.35;;;19.00;95.60;;;;;;5054199;28;20032;-80
2021/09/13 07:03:48;;;;;;;23.45;9.35;;;19.00;95.70;;;;;;5054358;28;20037;-80
2021/09/13 07:06:14;;;;;;;8.32;7.40;;;19.00;96.10;;;;;;5053091;28;20048;-80
2021/09/13 07:08:40;;;;;;;10.18;6.90;;;19.10;95.80;;;;;;5036606;28;20043;-80
2021/09/13 07:11:06;;;;;;;11.60;7.70;;;19.10;95.70;;;;;;5054153;28;20312;-79
2021/09/13 07:13:32;;;;;;;9.60;7.15;;;19.20;95.40;;;;;;5054433;28;20328;-79
2021/09/13 07:15:57;;;;;;;12.48;7.47;;;19.20;95.60;;;;;;5074459;28;20075;-80
2021/09/13 07:18:23;;;;;;;10.77;7.78;;;19.20;95.80;;;;;;5059935;28;20115;-80
2021/09/13 07:20:48;;;;;;;10.27;7.60;;;19.20;95.60;;;;;;5053769;28;20423;-80
2021/09/13 07:23:14;;;;;;;8.30;7.22;;;19.20;95.40;;;;;;5036001;28;20338;-80
2021/09/13 07:25:39;;;;;;;8.73;7.32;;;19.20;95.40;;;;;;5054294;28;20041;-80
2021/09/13 07:28:05;;;;;;;13.95;7.45;;;19.20;95.10;;;;;;5058300;28;20048;-79
2021/09/13 08:04:06;;;;;;;11.63;8.25;;;17.90;97.70;;;;;;5125516;27;20407;-84
2021/09/13 08:06:32;;;;;;;13.23;8.07;;;19.70;95.00;;;;;;5110652;28;20055;-85
2021/09/13 08:08:58;;;;;;;14.02;8.18;;;19.70;94.90;;;;;;5109510;28;20096;-85
2021/09/13 08:11:23;;;;;;;12.57;9.38;;;19.80;95.00;;;;;;5111169;28;20035;-84
2021/09/13 08:13:49;;;;;;;11.13;8.25;;;19.80;94.80;;;;;;5109061;28;20027;-86
2021/09/13 08:16:14;;;;;;;12.02;8.10;;;19.80;95.00;;;;;;5109912;28;20032;-86
2021/09/13 08:18:41;;;;;;;9.70;8.13;;;19.80;95.00;;;;;;5108885;28;20035;-87
2021/09/13 08:21:08;;;;;;;12.07;7.88;;;19.90;95.40;;;;;;5109432;28;20296;-86
2021/09/13 08:23:34;;;;;;;14.63;9.07;;;19.90;94.80;;;;;;5096969;28;20072;-87
2021/09/13 08:26:01;;;;;;;9.93;8.30;;;20.00;95.00;;;;;;5095169;28;20123;-86
2021/09/13 08:28:27;;;;;;;13.32;8.80;;;20.00;94.60;;;;;;5109592;28;20079;-85
2021/09/13 08:30:53;;;;;;;10.02;7.03;;;20.10;94.80;;;;;;5110880;28;20067;-87
2021/09/13 08:33:19;;;;;;;11.57;7.15;;;20.10;94.80;;;;;;5109792;28;20039;-85
2021/09/13 08:35:45;;;;;;;12.43;8.88;;;20.20;94.40;;;;;;5109646;28;20059;-86
2021/09/13 08:38:11;;;;;;;14.32;7.80;;;20.20;94.40;;;;;;5109590;28;20377;-85
2021/09/13 08:40:37;;;;;;;10.43;8.15;;;20.30;94.30;;;;;;5110521;28;20123;-85
2021/09/13 08:43:03;;;;;;;9.77;6.57;;;20.30;94.10;;;;;;5109606;28;20067;-85
2021/09/13 08:48:17;;;;;;;9.73;7.72;;;20.40;94.30;;;;;;5110680;28;20330;-86
2021/09/13 08:53:21;;;;;;;13.15;7.47;;;20.60;94.00;;;;;;5110166;28;20309;-85
2021/09/13 08:55:50;;;;;;;13.55;7.13;;;20.80;94.40;;;;;;5109351;28;20032;-87
2021/09/13 08:58:21;;;;;;;10.80;7.50;;;21.00;94.20;;;;;;5110116;28;20032;-86
2021/09/13 09:00:48;;;;;;;9.63;7.75;;;21.10;93.30;;;;;;5111050;28;20046;-85
2021/09/13 09:03:17;;;;;;;9.82;6.97;;;21.20;92.80;;;;;;5104227;28;20062;-86
2021/09/13 09:05:47;;;;;;;9.60;7.10;;;21.30;93.10;;;;;;5095995;28;20047;-86
2021/09/13 09:08:31;;;;;;;9.32;6.95;;;21.40;92.70;;;;;;5095860;28;20040;-85
2021/09/13 09:11:02;;;;;;;8.73;7.10;;;21.60;92.50;;;;;;5095852;28;20093;-87
2021/09/13 09:13:43;;;;;;;8.27;6.93;;;21.70;92.20;;;;;;5095890;28;20036;-86
2021/09/13 09:16:10;;;;;;;8.82;6.57;;;21.70;92.20;;;;;;5091681;28;20039;-86
2021/09/13 09:18:39;;;;;;;10.30;7.22;;;21.70;91.90;;;;;;5095694;28;20044;-86
2021/09/13 09:21:06;;;;;;;6.90;6.22;;;21.60;92.10;;;;;;5096087;28;20032;-85
2021/09/13 09:23:33;;;;;;;11.43;7.30;;;21.50;92.80;;;;;;5095781;28;20406;-86
2021/09/13 09:26:16;;;;;;;10.63;6.53;;;21.50;92.70;;;;;;5095441;28;20131;-86
2021/09/13 09:28:42;;;;;;;9.68;6.80;;;21.50;92.70;;;;;;5094940;28;20438;-86
2021/09/13 09:31:07;;;;;;;12.20;6.65;;;21.40;92.30;;;;;;5095556;28;20046;-86
2021/09/13 09:33:33;;;;;;;9.20;6.57;;;21.50;93.10;;;;;;5095775;28;20406;-85
2021/09/13 09:35:59;;;;;;;8.77;5.97;;;21.70;92.20;;;;;;5094510;28;20036;-86
2021/09/13 09:38:34;;;;;;;9.10;6.32;;;21.80;92.10;;;;;;5095739;28;20032;-85
2021/09/13 09:41:02;;;;;;;9.18;5.47;;;22.00;90.80;;;;;;5095547;28;20024;-86
2021/09/13 09:43:47;;;;;;;6.63;5.55;;;22.10;91.00;;;;;;5096084;28;20036;-86
2021/09/13 09:46:13;;;;;;;6.72;5.25;;;22.20;91.10;;;;;;5086044;28;20067;-86
2021/09/13 09:48:39;;;;;;;7.60;4.28;;;22.40;91.00;;;;;;5093479;28;20086;-85
2021/09/13 09:51:28;;;;;;;9.23;4.38;;;22.60;90.70;;;;;;5095829;28;20036;-86
2021/09/13 09:53:54;;;;;;;8.30;4.60;;;22.70;90.70;;;;;;5095274;28;20074;-84
2021/09/13 09:56:19;;;;;;;11.18;6.55;;;22.70;90.20;;;;;;5094820;28;20063;-85
2021/09/13 09:59:05;;;;;;;6.50;4.88;;;22.80;90.00;;;;;;5095612;28;20089;-86
2021/09/13 10:01:33;;;;;;;5.00;4.50;;;22.80;88.00;;;;;;5095350;28;20097;-85
2021/09/13 10:04:13;;;;;;;6.70;4.15;;;22.70;90.20;;;;;;5094501;28;20043;-85
2021/09/13 10:06:40;;;;;;;6.55;4.85;;;22.70;90.20;;;;;;5095211;28;20044;-85
2021/09/13 10:09:05;;;;;;;7.57;5.22;;;22.80;89.90;;;;;;5095532;28;20466;-85
2021/09/13 10:11:31;;;;;;;6.28;5.03;;;22.80;90.10;;;;;;5095234;28;20127;-86
2021/09/13 10:13:57;;;;;;;7.78;5.63;;;22.70;90.20;;;;;;5094543;28;20036;-85
2021/09/13 10:16:23;;;;;;;9.02;6.22;;;22.60;90.30;;;;;;5093413;28;20044;-87
2021/09/13 10:18:48;;;;;;;6.78;5.82;;;22.50;90.40;;;;;;5094527;28;20035;-86
2021/09/13 10:21:15;;;;;;;6.57;5.97;;;22.40;90.30;;;;;;5095703;28;20032;-85
2021/09/13 10:23:43;;;;;;;6.35;5.18;;;22.30;90.80;;;;;;5093774;28;20036;-85
2021/09/13 10:26:08;;;;;;;5.60;5.10;;;22.20;90.70;;;;;;5075070;28;20025;-85
2021/09/13 10:28:34;;;;;;;9.80;6.25;;;22.10;90.10;;;;;;5075739;28;20047;-85
2021/09/13 10:31:02;;;;;;;6.15;4.57;;;22.10;90.30;;;;;;5082896;28;20135;-85
2021/09/13 10:33:27;;;;;;;11.13;5.90;;;22.00;90.80;;;;;;5083787;28;20047;-87
2021/09/13 10:36:01;;;;;;;8.15;5.45;;;22.00;90.40;;;;;;5093574;28;20050;-84
2021/09/13 10:38:42;;;;;;;9.90;5.70;;;21.90;90.70;;;;;;5094256;28;20132;-83
2021/09/13 10:41:08;;;;;;;5.97;4.32;;;21.90;91.00;;;;;;5093954;28;20040;-82
2021/09/13 10:43:33;;;;;;;6.95;5.70;;;22.00;91.40;;;;;;5095156;28;20054;-87
2021/09/13 10:45:59;;;;;;;5.55;5.03;;;22.10;90.60;;;;;;5093066;28;20119;-88
2021/09/13 10:48:24;;;;;;;6.22;5.13;;;22.30;90.70;;;;;;5094102;28;20028;-81
2021/09/13 10:50:54;;;;;;;7.63;6.10;;;22.30;89.80;;;;;;5094093;28;20096;-79
2021/09/13 10:53:20;;;;;;;7.22;5.40;;;22.30;89.30;;;;;;5095436;28;20074;-85
2021/09/13 10:55:49;;;;;;;10.73;5.28;;;22.30;89.90;;;;;;5093032;28;20098;-83
2021/09/13 10:58:42;;;;;;;7.35;5.80;;;22.20;88.80;;;;;;5092310;28;20062;-82
2021/09/13 11:01:10;;;;;;;;;;;22.20;89.80;;;;;;5075735;28;20036;-83
2021/09/13 11:03:37;;;;;;;8.20;4.55;;;22.20;90.00;;;;;;5092604;28;20021;-83
2021/09/13 11:06:05;;;;;;;11.40;5.28;;;22.20;89.60;;;;;;5093261;28;20032;-83
2021/09/13 11:08:36;;;;;;;8.15;5.63;;;22.30;89.00;;;;;;5093921;28;20653;-80
2021/09/13 11:11:02;;;;;;;5.22;4.82;;;22.40;88.20;;;;;;5092675;28;20100;-82
2021/09/13 11:13:27;;;;;;;5.95;4.70;;;22.50;88.50;;;;;;5094037;28;20130;-81
2021/09/13 11:15:53;;;;;;;6.53;5.15;;;22.70;88.00;;;;;;5093776;28;20036;-82
2021/09/13 11:18:36;;;;;;;4.38;3.97;;;22.90;88.60;;;;;;5093552;28;20055;-82
2021/09/13 11:21:19;;;;;;;6.28;4.72;;;23.20;88.80;;;;;;5093298;28;20040;-81
2021/09/13 11:23:46;;;;;;;10.82;4.47;;;23.40;87.40;;;;;;5093398;28;20668;-82
2021/09/13 11:26:18;;;;;;;4.65;3.80;;;23.60;85.10;;;;;;5092557;28;20047;-81
2021/09/13 11:29:14;;;;;;;5.70;4.33;;;23.80;84.30;;;;;;5092703;28;20268;-81
2021/09/13 11:31:48;;;;;;;5.18;3.55;;;23.90;83.70;;;;;;5092533;28;20274;-80
2021/09/13 11:34:14;;;;;;;9.48;4.03;;;24.10;83.80;;;;;;5090203;28;20047;-81
2021/09/13 11:36:52;;;;;;;10.68;3.90;;;24.20;84.10;;;;;;5081688;28;20048;-81
2021/09/13 11:39:18;;;;;;;7.03;3.97;;;24.30;83.30;;;;;;5080436;28;20043;-82
2021/09/13 11:41:56;;;;;;;5.90;3.72;;;24.30;84.20;;;;;;5081330;28;20040;-82
2021/09/13 11:44:22;;;;;;;5.30;3.67;;;24.10;83.20;;;;;;5081022;28;20460;-82
2021/09/13 11:47:00;;;;;;;8.45;4.18;;;24.00;84.60;;;;;;5086203;28;20127;-81
2021/09/13 11:49:28;;;;;;;6.22;4.47;;;24.00;84.00;;;;;;5087015;28;20127;-81
2021/09/13 11:52:23;;;;;;;5.55;4.32;;;23.90;83.50;;;;;;5082470;28;20050;-81
2021/09/13 11:55:04;;;;;;;5.40;4.35;;;23.80;84.30;;;;;;5083413;28;20146;-81
2021/09/13 11:57:32;;;;;;;9.57;4.40;;;23.70;85.20;;;;;;5085345;28;20136;-81
2021/09/13 12:00:02;;;;;;;6.70;4.10;;;23.70;84.60;;;;;;5081191;28;20048;-81
2021/09/13 12:02:29;;;;;;;6.38;5.32;;;23.60;83.70;;;;;;5082366;28;20047;-81
2021/09/13 12:04:58;;;;;;;6.07;4.65;;;23.50;85.40;;;;;;5082498;28;20036;-81
2021/09/13 12:07:24;;;;;;;7.85;5.28;;;23.40;85.50;;;;;;5086496;28;20388;-82
2021/09/13 12:09:52;;;;;;;4.70;4.07;;;23.50;84.90;;;;;;5080487;28;20027;-81
2021/09/13 12:12:23;;;;;;;4.38;3.97;;;23.50;84.50;;;;;;5083830;28;20122;-82
2021/09/13 12:14:51;;;;;;;5.68;4.30;;;23.60;86.00;;;;;;5090765;28;20425;-81
2021/09/13 12:17:19;;;;;;;5.13;4.20;;;23.80;84.00;;;;;;5085538;28;20048;-81
2021/09/13 12:20:08;;;;;;;4.15;3.75;;;23.80;85.50;;;;;;5080859;28;20028;-82
2021/09/13 12:22:35;;;;;;;8.68;4.20;;;24.10;82.70;;;;;;5082191;28;20069;-81
2021/09/13 12:25:11;;;;;;;8.75;4.97;;;24.10;82.10;;;;;;5083951;28;20079;-82
2021/09/13 12:28:02;;;;;;;6.88;3.42;;;24.30;81.30;;;;;;5082151;28;20036;-81
2021/09/13 12:30:36;;;;;;;6.28;4.20;;;24.30;83.40;;;;;;5078496;28;20082;-81
2021/09/13 12:33:07;;;;;;;6.78;4.35;;;24.50;82.00;;;;;;5085392;28;20055;-82
2021/09/13 12:35:42;;;;;;;6.95;3.90;;;24.70;81.30;;;;;;5078674;28;20356;-83
2021/09/13 12:38:09;;;;;;;8.77;4.60;;;24.60;80.40;;;;;;5083713;28;20079;-83
2021/09/13 12:40:59;;;;;;;5.15;4.60;;;24.60;80.00;;;;;;5085432;28;20051;-82
2021/09/13 12:43:29;;;;;;;4.30;3.88;;;24.50;80.10;;;;;;5087448;28;20051;-82
2021/09/13 12:46:15;;;;;;;5.25;3.97;;;24.30;81.40;;;;;;5088743;28;20032;-82
2021/09/13 12:48:43;;;;;;;6.28;3.70;;;24.40;79.90;;;;;;5084520;28;20399;-82
2021/09/13 12:51:20;;;;;;;3.97;3.22;;;24.50;80.30;;;;;;5086180;28;20123;-82
2021/09/13 12:53:59;;;;;;;5.45;3.10;;;24.60;78.50;;;;;;5086197;28;20303;-82
2021/09/13 12:56:25;;;;;;;5.18;3.10;;;24.70;79.90;;;;;;5084758;28;20101;-82
2021/09/13 12:58:54;;;;;;;7.45;3.47;;;24.70;79.90;;;;;;5090354;28;20035;-82
2021/09/13 13:01:32;;;;;;;4.18;2.63;;;24.80;79.50;;;;;;5087272;28;20174;-82
2021/09/13 13:04:03;;;;;;;5.30;3.10;;;24.90;80.00;;;;;;5082328;28;20044;-87
2021/09/13 13:06:29;;;;;;;3.43;2.30;;;24.90;78.60;;;;;;5088145;28;20044;-84
2021/09/13 13:08:55;;;;;;;3.65;3.03;;;24.80;78.40;;;;;;5082671;28;20037;-83
2021/09/13 13:11:20;;;;;;;3.80;2.75;;;24.60;79.80;;;;;;5089384;28;20039;-84
2021/09/13 13:13:46;;;;;;;3.03;2.42;;;24.50;81.00;;;;;;5084923;28;20036;-84
2021/09/13 13:16:11;;;;;;;3.28;2.78;;;24.40;80.50;;;;;;5084572;28;20059;-83
2021/09/13 13:18:39;;;;;;;3.00;2.50;;;24.30;80.70;;;;;;5087105;28;20044;-83
2021/09/13 13:21:04;;;;;;;3.88;2.90;;;24.20;81.60;;;;;;5083399;28;20086;-81
2021/09/13 13:23:30;;;;;;;4.97;3.00;;;24.10;82.50;;;;;;5089585;28;20067;-82
2021/09/13 13:25:55;;;;;;;3.40;2.95;;;24.20;82.00;;;;;;5085002;28;20043;-83
2021/09/13 13:28:22;;;;;;;4.60;2.88;;;24.10;79.50;;;;;;5088105;28;20061;-82